ZRH weather

Z├╝rich Airport
Zurich, Canton of Zurich, Switzerland

Public forecast

Using degrees Celsius for public forecast. Weather courtesy of forecast.io.

METAR (pilot weather report)

Retrieved 2017/03/29 08:50 UTC (16 minutes ago):

LSZH 290850Z VRB01KT 9999 FEW025 SCT300 13/06 Q1029 NOSIG

TAF (pilot weather forecast)

Retrieved 2017/03/29 09:35 UTC (0 seconds ago):

TAF LSZH 290825Z 2909/3015 VRB03KT 9999 FEW030 SCT300 TX20/2915Z TN05/3005Z TX21/3015Z BECMG 2909/2912 CAVOK TEMPO 2912/2917 9999 FEW060 PROB30 3003/3007 4000 MIFG BECMG 3007/3010 05007KT